createdAt,value
2017-09-21T00:01:22.488Z,5.60
2017-09-21T00:03:50.141Z,6.80
2017-09-21T00:06:17.926Z,5.40
2017-09-21T00:08:46.389Z,7.30
2017-09-21T00:11:14.072Z,6.40
2017-09-21T00:13:42.520Z,5.03
2017-09-21T00:16:10.192Z,7.03
2017-09-21T00:18:37.858Z,6.93
2017-09-21T00:21:05.629Z,7.80
2017-09-21T00:23:33.408Z,7.53
2017-09-21T00:26:01.084Z,6.70
2017-09-21T00:28:29.526Z,7.20
2017-09-21T00:30:57.305Z,5.43
2017-09-21T00:33:25.173Z,7.30
2017-09-21T00:35:52.856Z,5.43
2017-09-21T00:38:20.626Z,5.50
2017-09-21T00:40:48.370Z,4.33
2017-09-21T00:43:16.048Z,4.97
2017-09-21T00:45:44.635Z,4.50
2017-09-21T00:48:13.138Z,5.70
2017-09-21T00:50:41.687Z,5.50
2017-09-21T00:53:09.549Z,7.03
2017-09-21T00:55:37.421Z,5.50
2017-09-21T00:58:05.139Z,4.83
2017-09-21T01:00:32.930Z,6.33
2017-09-21T01:03:00.750Z,4.40
2017-09-21T01:05:29.382Z,6.13
2017-09-21T01:07:57.118Z,6.37
2017-09-21T01:10:24.833Z,6.33
2017-09-21T01:12:52.693Z,4.73
2017-09-21T01:15:20.557Z,4.77
2017-09-21T01:17:48.304Z,5.40
2017-09-21T01:20:15.987Z,6.17
2017-09-21T01:22:44.447Z,6.70
2017-09-21T01:25:12.065Z,7.00
2017-09-21T01:27:39.711Z,5.20
2017-09-21T01:32:41.141Z,6.97
2017-09-21T01:35:08.790Z,5.80
2017-09-21T01:37:36.433Z,4.93
2017-09-21T01:40:04.095Z,8.60
2017-09-21T01:42:31.734Z,5.27
2017-09-21T01:45:00.154Z,9.20
2017-09-21T01:47:27.780Z,4.57
2017-09-21T01:49:55.447Z,6.07
2017-09-21T01:52:23.072Z,7.30
2017-09-21T01:54:50.750Z,7.20
2017-09-21T01:57:19.148Z,10.67
2017-09-21T01:59:46.808Z,7.90
2017-09-21T02:02:14.455Z,6.27
2017-09-21T02:04:42.868Z,9.50
2017-09-21T02:07:10.534Z,6.70
2017-09-21T02:09:38.184Z,5.37
2017-09-21T02:12:05.893Z,10.60
2017-09-21T02:14:33.536Z,11.63
2017-09-21T02:17:01.204Z,6.63
2017-09-21T02:19:28.824Z,8.27
2017-09-21T02:21:56.490Z,6.33
2017-09-21T02:24:24.122Z,8.53
2017-09-21T02:26:52.564Z,8.73
2017-09-21T02:29:20.192Z,8.23
2017-09-21T02:31:47.827Z,8.10
2017-09-21T02:34:16.266Z,9.30
2017-09-21T02:36:43.881Z,8.20
2017-09-21T02:39:12.309Z,10.67
2017-09-21T02:41:39.960Z,10.40
2017-09-21T02:44:07.651Z,11.47
2017-09-21T02:46:35.286Z,7.30
2017-09-21T02:49:02.912Z,6.67
2017-09-21T02:51:30.568Z,9.03
2017-09-21T02:53:58.989Z,10.13
2017-09-21T02:56:26.632Z,8.13
2017-09-21T02:58:54.270Z,7.87
2017-09-21T03:01:22.698Z,10.33
2017-09-21T03:03:50.359Z,9.50
2017-09-21T03:06:18.081Z,8.17
2017-09-21T03:08:45.757Z,7.90
2017-09-21T03:11:13.406Z,10.97
2017-09-21T03:13:41.035Z,6.50
2017-09-21T03:16:08.710Z,8.40
2017-09-21T03:18:37.100Z,11.07
2017-09-21T03:21:04.740Z,12.57
2017-09-21T03:23:32.423Z,13.70
2017-09-21T03:26:00.831Z,9.40
2017-09-21T03:28:28.493Z,11.60
2017-09-21T03:30:56.127Z,14.00
2017-09-21T03:33:24.516Z,11.87
2017-09-21T03:35:52.194Z,12.17
2017-09-21T03:38:19.816Z,8.03
2017-09-21T03:40:47.484Z,9.43
2017-09-21T03:43:15.162Z,11.60
2017-09-21T03:45:42.790Z,8.17
2017-09-21T03:48:10.438Z,7.73
2017-09-21T03:50:38.120Z,7.60
2017-09-21T03:53:05.771Z,11.17
2017-09-21T03:55:33.415Z,11.07
2017-09-21T03:58:01.859Z,8.20
2017-09-21T04:00:29.508Z,7.80
2017-09-21T04:02:57.169Z,7.03
2017-09-21T04:05:24.807Z,7.47
2017-09-21T04:07:52.443Z,14.00
2017-09-21T04:10:20.131Z,6.73
2017-09-21T04:12:47.752Z,11.50
2017-09-21T04:15:15.382Z,11.70
2017-09-21T04:17:43.090Z,7.03
2017-09-21T04:20:10.727Z,6.97
2017-09-21T04:22:38.367Z,12.23
2017-09-21T04:25:06.008Z,9.60
2017-09-21T04:27:34.421Z,9.13
2017-09-21T04:30:02.105Z,11.57
2017-09-21T04:32:29.729Z,13.40
2017-09-21T04:34:57.358Z,11.33
2017-09-21T04:37:25.043Z,9.80
2017-09-21T04:39:52.691Z,14.00
2017-09-21T04:42:21.122Z,13.73
2017-09-21T04:44:48.806Z,13.50
2017-09-21T04:47:16.432Z,10.20
2017-09-21T04:49:44.063Z,11.03
2017-09-21T04:52:12.531Z,11.83
2017-09-21T04:54:40.413Z,13.60
2017-09-21T04:57:08.269Z,13.03
2017-09-21T04:59:36.702Z,13.60
2017-09-21T05:02:04.376Z,14.10
2017-09-21T05:04:32.171Z,15.57
2017-09-21T05:06:59.851Z,15.77
2017-09-21T05:09:28.253Z,12.03
2017-09-21T05:11:55.919Z,16.90
2017-09-21T05:14:23.593Z,12.63
2017-09-21T05:16:51.234Z,15.33
2017-09-21T05:19:18.864Z,9.03
2017-09-21T05:21:47.290Z,16.57
2017-09-21T05:24:14.923Z,10.67
2017-09-21T05:26:42.557Z,9.77
2017-09-21T05:29:10.216Z,8.27
2017-09-21T05:31:37.876Z,10.67
2017-09-21T05:34:05.514Z,13.27
2017-09-21T05:36:33.202Z,12.53
2017-09-21T05:39:00.839Z,16.67
2017-09-21T05:41:28.554Z,12.07
2017-09-21T05:43:56.210Z,15.20
2017-09-21T05:46:24.614Z,16.97
2017-09-21T05:48:52.262Z,20.53
2017-09-21T05:51:19.898Z,8.17
2017-09-21T05:53:47.566Z,18.60
2017-09-21T05:56:15.974Z,11.97
2017-09-21T05:58:43.604Z,19.63
2017-09-21T06:01:11.362Z,16.40
2017-09-21T06:03:39.020Z,19.87
2017-09-21T06:06:06.680Z,19.47
2017-09-21T06:08:34.348Z,10.93
2017-09-21T06:11:01.991Z,18.67
2017-09-21T06:13:30.401Z,17.83
2017-09-21T06:15:58.846Z,12.37
2017-09-21T06:18:26.472Z,13.70
2017-09-21T06:20:54.164Z,12.00
2017-09-21T06:23:21.790Z,11.37
2017-09-21T06:25:49.434Z,16.17
2017-09-21T06:28:17.867Z,17.90
2017-09-21T06:30:45.540Z,21.07
2017-09-21T06:33:13.205Z,10.27
2017-09-21T06:35:40.857Z,18.80
2017-09-21T06:38:09.256Z,13.07
2017-09-21T06:40:36.953Z,14.10
2017-09-21T06:43:04.581Z,17.50
2017-09-21T06:45:32.225Z,14.27
2017-09-21T06:47:59.880Z,16.97
2017-09-21T06:50:27.545Z,16.00
2017-09-21T06:52:55.186Z,13.40
2017-09-21T06:55:22.865Z,18.37
2017-09-21T06:57:50.502Z,14.90
2017-09-21T07:00:18.143Z,22.83
2017-09-21T07:02:45.815Z,21.80
2017-09-21T07:05:13.435Z,18.67
2017-09-21T07:07:41.104Z,17.90
2017-09-21T07:10:08.769Z,19.73
2017-09-21T07:12:37.159Z,20.57
2017-09-21T07:15:05.561Z,15.53
2017-09-21T07:17:33.222Z,20.87
2017-09-21T07:20:00.846Z,20.00
2017-09-21T07:22:28.501Z,18.40
2017-09-21T07:24:56.259Z,19.60
2017-09-21T07:27:23.877Z,20.97
2017-09-21T07:29:51.544Z,22.70
2017-09-21T07:32:19.172Z,19.57
2017-09-21T07:34:47.612Z,21.77
2017-09-21T07:37:15.364Z,14.77
2017-09-21T07:39:43.007Z,15.27
2017-09-21T07:42:10.690Z,15.80
2017-09-21T07:44:38.468Z,19.60
2017-09-21T07:47:06.225Z,19.23
2017-09-21T07:49:33.885Z,22.60
2017-09-21T07:52:01.530Z,18.30
2017-09-21T07:54:29.201Z,16.10
2017-09-21T07:56:56.835Z,19.90
2017-09-21T07:59:24.471Z,17.23
2017-09-21T08:01:52.906Z,13.83
2017-09-21T08:04:20.673Z,16.17
2017-09-21T08:06:48.534Z,16.10
2017-09-21T08:09:17.171Z,12.77
2017-09-21T08:11:45.704Z,12.53
2017-09-21T08:14:13.382Z,16.87
2017-09-21T08:16:41.032Z,15.67
2017-09-21T08:19:08.713Z,15.10
2017-09-21T08:21:36.382Z,12.83
2017-09-21T08:24:04.024Z,19.20
2017-09-21T08:26:31.677Z,16.57
2017-09-21T08:28:59.324Z,12.50
2017-09-21T08:31:26.996Z,16.07
2017-09-21T08:33:54.617Z,14.33
2017-09-21T08:36:22.248Z,15.93
2017-09-21T08:38:49.925Z,15.20
2017-09-21T08:41:18.383Z,16.40
2017-09-21T08:43:46.153Z,12.00
2017-09-21T08:46:13.873Z,10.73
2017-09-21T08:48:41.660Z,10.20
2017-09-21T08:51:09.330Z,14.20
2017-09-21T08:53:36.980Z,11.97
2017-09-21T08:56:04.643Z,13.60
2017-09-21T08:58:32.405Z,13.50
2017-09-21T09:01:00.061Z,9.80
2017-09-21T09:03:27.719Z,10.00
2017-09-21T09:05:55.408Z,13.50
2017-09-21T09:08:23.259Z,10.00
2017-09-21T09:10:51.023Z,9.10
2017-09-21T09:13:18.713Z,11.80
2017-09-21T09:15:46.362Z,8.20
2017-09-21T09:18:14.025Z,6.77
2017-09-21T09:20:43.207Z,8.80
2017-09-21T09:23:10.868Z,7.30
2017-09-21T09:25:38.634Z,9.67
2017-09-21T09:28:06.401Z,11.90
2017-09-21T09:30:34.277Z,9.90
2017-09-21T09:33:01.911Z,6.60
2017-09-21T09:35:29.589Z,9.77
2017-09-21T09:37:57.273Z,7.63
2017-09-21T09:40:24.910Z,9.50
2017-09-21T09:42:52.587Z,6.63
2017-09-21T09:45:20.454Z,7.43
2017-09-21T09:47:48.081Z,5.33
2017-09-21T09:50:15.769Z,6.00
2017-09-21T09:52:43.434Z,5.57
2017-09-21T09:55:11.100Z,4.80
2017-09-21T09:57:38.770Z,4.07
2017-09-21T10:00:06.397Z,5.40
2017-09-21T10:02:34.068Z,6.30
2017-09-21T10:05:01.750Z,5.80
2017-09-21T10:07:29.373Z,6.07
2017-09-21T10:09:57.037Z,4.60
2017-09-21T10:12:24.681Z,6.87
2017-09-21T10:14:52.311Z,5.10
2017-09-21T10:17:19.968Z,7.90
2017-09-21T10:19:47.606Z,4.83
2017-09-21T10:22:16.897Z,4.90
2017-09-21T10:24:44.520Z,4.97
2017-09-21T10:27:12.907Z,4.77
2017-09-21T10:29:40.600Z,5.70
2017-09-21T10:32:08.247Z,3.80
2017-09-21T10:34:35.870Z,4.40
2017-09-21T10:37:04.311Z,3.80
2017-09-21T10:39:32.721Z,6.80
2017-09-21T10:42:00.363Z,6.60
2017-09-21T10:44:28.010Z,4.60
2017-09-21T10:46:55.674Z,4.17
2017-09-21T10:49:23.401Z,8.70
2017-09-21T10:51:51.021Z,7.43
2017-09-21T10:54:18.706Z,10.77
2017-09-21T10:56:47.137Z,11.13
2017-09-21T10:59:14.762Z,6.93
2017-09-21T11:01:42.406Z,5.30
2017-09-21T11:04:10.825Z,5.80
2017-09-21T11:06:38.454Z,6.43
2017-09-21T11:09:06.871Z,6.40
2017-09-21T11:11:34.535Z,6.30
2017-09-21T11:14:02.188Z,5.83
2017-09-21T11:16:29.796Z,5.10
2017-09-21T11:18:57.452Z,4.70
2017-09-21T11:21:25.107Z,6.37
2017-09-21T11:23:52.820Z,11.17
2017-09-21T11:26:20.571Z,5.77
2017-09-21T11:28:48.251Z,10.20
2017-09-21T11:31:16.002Z,8.40
2017-09-21T11:33:43.648Z,11.97
2017-09-21T11:36:11.268Z,16.90
2017-09-21T11:38:38.934Z,12.70
2017-09-21T11:41:06.594Z,11.73
2017-09-21T11:43:34.361Z,16.23
2017-09-21T11:46:02.010Z,11.17
2017-09-21T11:48:29.636Z,9.77
2017-09-21T11:50:57.295Z,11.40
2017-09-21T11:53:25.111Z,12.70
2017-09-21T11:55:52.800Z,13.00
2017-09-21T11:58:21.542Z,12.63
2017-09-21T12:00:49.196Z,7.37
2017-09-21T12:03:16.846Z,11.67
2017-09-21T12:05:44.605Z,8.27
2017-09-21T12:08:12.247Z,9.43
2017-09-21T12:10:40.632Z,9.60
2017-09-21T12:13:08.511Z,5.10
2017-09-21T12:15:36.124Z,7.07
2017-09-21T12:18:03.802Z,11.60
2017-09-21T12:20:31.454Z,11.70
2017-09-21T12:22:59.109Z,6.80
2017-09-21T12:25:26.767Z,9.70
2017-09-21T12:27:54.408Z,11.50
2017-09-21T12:30:22.107Z,9.00
2017-09-21T12:32:49.749Z,8.53
2017-09-21T12:35:17.398Z,10.40
2017-09-21T12:37:45.836Z,10.63
2017-09-21T12:40:14.261Z,10.07
2017-09-21T12:42:41.914Z,10.10
2017-09-21T12:45:09.577Z,11.30
2017-09-21T12:47:37.194Z,11.23
2017-09-21T12:50:05.617Z,7.87
2017-09-21T12:52:33.258Z,7.87
2017-09-21T12:55:00.888Z,6.37
2017-09-21T12:57:29.321Z,9.20
2017-09-21T12:59:57.014Z,7.80
2017-09-21T13:02:24.699Z,5.03
2017-09-21T13:04:53.085Z,7.90
2017-09-21T13:07:20.835Z,5.93
2017-09-21T13:09:49.291Z,6.57
2017-09-21T13:12:16.909Z,6.67
2017-09-21T13:14:44.531Z,3.63
2017-09-21T13:17:12.201Z,4.00
2017-09-21T13:19:39.853Z,5.27
2017-09-21T13:22:07.518Z,5.53
2017-09-21T13:24:35.137Z,3.60
2017-09-21T13:27:02.749Z,4.40
2017-09-21T13:29:31.173Z,3.77
2017-09-21T13:31:58.946Z,4.03
2017-09-21T13:34:26.561Z,4.10
2017-09-21T13:36:54.372Z,4.80
2017-09-21T13:39:21.997Z,3.33
2017-09-21T13:41:49.679Z,4.77
2017-09-21T13:44:17.459Z,4.17
2017-09-21T13:46:45.242Z,3.70
2017-09-21T13:49:12.905Z,4.27
2017-09-21T13:51:40.600Z,5.27
2017-09-21T13:54:09.077Z,4.07
2017-09-21T13:56:37.474Z,3.30
2017-09-21T13:59:05.092Z,4.93
2017-09-21T14:01:32.748Z,4.43
2017-09-21T14:04:00.368Z,3.37
2017-09-21T14:06:27.990Z,4.13
2017-09-21T14:08:55.822Z,3.60
2017-09-21T14:11:23.585Z,4.10
2017-09-21T14:13:51.255Z,3.90
2017-09-21T14:16:19.009Z,4.50
2017-09-21T14:18:46.677Z,4.70
2017-09-21T14:21:14.346Z,5.50
2017-09-21T14:23:42.015Z,5.50
2017-09-21T14:26:11.227Z,6.80
2017-09-21T14:28:39.699Z,6.67
2017-09-21T14:31:07.351Z,6.43
2017-09-21T14:33:35.098Z,5.07
2017-09-21T14:36:02.721Z,5.77
2017-09-21T14:38:30.630Z,6.00
2017-09-21T14:40:58.320Z,6.47
2017-09-21T14:43:27.486Z,5.80
2017-09-21T14:45:55.358Z,6.10
2017-09-21T14:48:22.976Z,7.17
2017-09-21T14:50:50.694Z,6.17
2017-09-21T14:53:18.352Z,4.90
2017-09-21T14:55:46.017Z,5.80
2017-09-21T14:58:13.640Z,6.50
2017-09-21T15:00:41.315Z,6.20
2017-09-21T15:03:08.952Z,6.30
2017-09-21T15:05:36.664Z,5.63
2017-09-21T15:08:04.327Z,4.90
2017-09-21T15:10:33.473Z,5.30
2017-09-21T15:13:01.133Z,4.93
2017-09-21T15:15:28.763Z,6.17
2017-09-21T15:17:56.390Z,5.60
2017-09-21T15:20:24.078Z,5.20
2017-09-21T15:22:51.748Z,5.50
2017-09-21T15:25:19.396Z,3.83
2017-09-21T15:27:47.057Z,4.30
2017-09-21T15:30:14.703Z,3.17
2017-09-21T15:32:42.467Z,3.90
2017-09-21T15:35:10.107Z,3.60
2017-09-21T15:37:37.817Z,3.43
2017-09-21T15:40:06.971Z,4.17
2017-09-21T15:42:34.610Z,4.70
2017-09-21T15:45:02.318Z,5.00
2017-09-21T15:47:29.952Z,4.60
2017-09-21T15:49:57.585Z,4.43
2017-09-21T15:52:26.006Z,3.90
2017-09-21T15:54:53.621Z,5.00
2017-09-21T15:57:22.045Z,3.57
2017-09-21T15:59:49.674Z,4.63
2017-09-21T16:02:17.313Z,5.23
2017-09-21T16:04:45.059Z,4.30
2017-09-21T16:07:13.458Z,3.50
2017-09-21T16:09:41.094Z,4.60
2017-09-21T16:12:08.744Z,3.27
2017-09-21T16:14:36.368Z,4.37
2017-09-21T16:17:04.066Z,4.47
2017-09-21T16:19:31.728Z,4.73
2017-09-21T16:21:59.594Z,4.90
2017-09-21T16:24:27.279Z,4.97
2017-09-21T16:26:54.943Z,4.73
2017-09-21T16:29:22.577Z,4.70
2017-09-21T16:31:50.210Z,4.50
2017-09-21T16:34:17.869Z,4.57
2017-09-21T16:36:45.704Z,4.40
2017-09-21T16:39:13.371Z,4.30
2017-09-21T16:41:41.762Z,4.47
2017-09-21T16:44:10.169Z,5.03
2017-09-21T16:46:37.871Z,4.30
2017-09-21T16:49:05.508Z,5.40
2017-09-21T16:51:33.280Z,4.57
2017-09-21T16:54:01.063Z,5.23
2017-09-21T16:56:28.808Z,5.50
2017-09-21T16:58:56.790Z,4.87
2017-09-21T17:01:24.441Z,5.20
2017-09-21T17:03:52.070Z,3.90
2017-09-21T17:06:19.695Z,5.47
2017-09-21T17:08:47.371Z,5.10
2017-09-21T17:11:16.026Z,5.70
2017-09-21T17:13:43.770Z,4.67
2017-09-21T17:16:11.433Z,4.93
2017-09-21T17:18:39.055Z,6.00
2017-09-21T17:21:09.171Z,5.23
2017-09-21T17:23:39.357Z,5.17
2017-09-21T17:26:07.156Z,5.10
2017-09-21T17:28:35.579Z,5.93
2017-09-21T17:31:03.201Z,5.30
2017-09-21T17:33:30.856Z,6.10
2017-09-21T17:35:59.305Z,6.83
2017-09-21T17:38:26.971Z,6.10
2017-09-21T17:40:56.449Z,6.93
2017-09-21T17:43:24.076Z,6.30
2017-09-21T17:45:51.740Z,5.50
2017-09-21T17:48:19.379Z,6.40
2017-09-21T17:50:47.824Z,5.73
2017-09-21T17:53:15.598Z,6.43
2017-09-21T17:55:43.218Z,6.03
2017-09-21T17:58:10.868Z,5.80
2017-09-21T18:00:38.531Z,5.87
2017-09-21T18:03:06.145Z,6.83
2017-09-21T18:05:33.774Z,6.70
2017-09-21T18:08:01.417Z,5.87
2017-09-21T18:10:29.050Z,5.20
2017-09-21T18:12:56.716Z,5.60
2017-09-21T18:15:25.106Z,5.70
2017-09-21T18:17:52.728Z,6.47
2017-09-21T18:20:20.794Z,6.33
2017-09-21T18:22:48.462Z,4.70
2017-09-21T18:25:16.947Z,4.47
2017-09-21T18:27:44.701Z,6.73
2017-09-21T18:30:12.350Z,6.67
2017-09-21T18:32:39.976Z,5.83
2017-09-21T18:35:07.672Z,9.93
2017-09-21T18:37:35.288Z,10.53
2017-09-21T18:40:03.683Z,19.23
2017-09-21T18:42:32.280Z,18.70
2017-09-21T18:44:59.918Z,18.30
2017-09-21T18:47:27.580Z,21.53
2017-09-21T18:49:55.209Z,20.70
2017-09-21T18:52:24.376Z,21.43
2017-09-21T18:54:52.041Z,17.77
2017-09-21T18:57:19.729Z,13.50
2017-09-21T18:59:47.526Z,12.27
2017-09-21T19:02:15.426Z,10.83
2017-09-21T19:04:43.123Z,9.67
2017-09-21T19:07:12.495Z,8.83
2017-09-21T19:09:40.116Z,8.43
2017-09-21T19:12:08.843Z,7.77
2017-09-21T19:14:36.961Z,9.30
2017-09-21T19:17:06.010Z,8.70
2017-09-21T19:19:34.803Z,8.73
2017-09-21T19:22:02.670Z,7.60
2017-09-21T19:24:30.314Z,8.97
2017-09-21T19:26:57.971Z,8.60
2017-09-21T19:29:25.761Z,8.30
2017-09-21T19:31:53.585Z,6.53
2017-09-21T19:34:21.623Z,7.63
2017-09-21T19:36:50.056Z,8.03
2017-09-21T19:39:18.827Z,8.20
2017-09-21T19:41:46.663Z,9.50
2017-09-21T19:44:14.491Z,10.30
2017-09-21T19:46:42.564Z,9.60
2017-09-21T19:49:10.319Z,8.00
2017-09-21T19:51:38.364Z,8.70
2017-09-21T19:54:06.039Z,7.20
2017-09-21T19:56:33.748Z,7.70
2017-09-21T19:59:01.365Z,6.87
2017-09-21T20:01:29.357Z,7.60
2017-09-21T20:03:56.990Z,5.77
2017-09-21T20:06:24.609Z,5.43
2017-09-21T20:08:52.265Z,9.07
2017-09-21T20:11:20.675Z,8.97
2017-09-21T20:13:50.516Z,9.10
2017-09-21T20:16:18.396Z,9.20
2017-09-21T20:18:46.093Z,9.93
2017-09-21T20:21:13.898Z,8.70
2017-09-21T20:23:41.600Z,8.03
2017-09-21T20:26:09.245Z,9.33
2017-09-21T20:28:37.935Z,8.63
2017-09-21T20:31:05.596Z,8.40
2017-09-21T20:33:34.079Z,7.63
2017-09-21T20:36:02.265Z,7.50
2017-09-21T20:38:29.928Z,7.97
2017-09-21T20:40:57.593Z,7.77
2017-09-21T20:43:26.921Z,8.27
2017-09-21T20:45:56.557Z,8.30
2017-09-21T20:48:24.242Z,7.40
2017-09-21T20:50:51.890Z,7.27
2017-09-21T20:53:20.631Z,8.00
2017-09-21T20:55:48.351Z,7.23
2017-09-21T20:58:16.224Z,8.00
2017-09-21T21:00:45.694Z,6.50
2017-09-21T21:03:14.319Z,7.67
2017-09-21T21:05:42.079Z,6.97
2017-09-21T21:08:09.710Z,6.43
2017-09-21T21:10:37.343Z,8.30
2017-09-21T21:13:05.787Z,6.00
2017-09-21T21:15:34.192Z,7.90
2017-09-21T21:18:01.916Z,6.60
2017-09-21T21:20:29.556Z,8.53
2017-09-21T21:22:57.204Z,9.17
2017-09-21T21:25:25.635Z,8.57
2017-09-21T21:27:53.279Z,8.37
2017-09-21T21:30:20.888Z,8.30
2017-09-21T21:32:48.543Z,9.20
2017-09-21T21:35:16.184Z,8.63
2017-09-21T21:37:43.857Z,8.10
2017-09-21T21:40:13.049Z,6.40
2017-09-21T21:42:40.716Z,8.00
2017-09-21T21:45:08.375Z,10.20
2017-09-21T21:47:36.049Z,9.83
2017-09-21T21:50:05.505Z,10.73
2017-09-21T21:52:33.288Z,10.70
2017-09-21T21:55:00.912Z,11.00
2017-09-21T21:57:28.568Z,8.30
2017-09-21T21:59:57.003Z,10.27
2017-09-21T22:02:24.642Z,10.17
2017-09-21T22:04:52.315Z,11.63
2017-09-21T22:07:19.934Z,10.50
2017-09-21T22:09:48.462Z,9.77
2017-09-21T22:12:16.505Z,8.30
2017-09-21T22:14:44.155Z,7.23
2017-09-21T22:17:11.830Z,9.30
2017-09-21T22:19:39.445Z,8.50
2017-09-21T22:22:07.076Z,8.53
2017-09-21T22:24:34.736Z,9.00
2017-09-21T22:27:02.362Z,8.30
2017-09-21T22:29:29.988Z,7.00
2017-09-21T22:31:57.663Z,8.20
2017-09-21T22:34:26.133Z,9.07
2017-09-21T22:36:53.762Z,9.03
2017-09-21T22:39:21.429Z,9.37
2017-09-21T22:41:49.048Z,8.33
2017-09-21T22:44:16.678Z,7.30
2017-09-21T22:46:44.348Z,9.07
2017-09-21T22:49:12.748Z,8.97
2017-09-21T22:51:40.373Z,8.50
2017-09-21T22:54:08.091Z,8.33
2017-09-21T22:56:35.730Z,8.33
2017-09-21T22:59:04.117Z,7.53
2017-09-21T23:01:31.766Z,7.27
2017-09-21T23:04:00.293Z,8.07
2017-09-21T23:06:27.909Z,8.57
2017-09-21T23:08:56.441Z,9.40
2017-09-21T23:11:24.090Z,9.00
2017-09-21T23:13:51.716Z,8.77
2017-09-21T23:16:20.244Z,7.80
2017-09-21T23:18:47.886Z,7.70
2017-09-21T23:21:15.612Z,7.97
2017-09-21T23:23:44.012Z,8.50
2017-09-21T23:26:11.640Z,7.80
2017-09-21T23:28:39.300Z,8.27
2017-09-21T23:31:06.932Z,9.03
2017-09-21T23:33:34.576Z,5.90
2017-09-21T23:36:02.247Z,9.30
2017-09-21T23:38:30.659Z,7.77
2017-09-21T23:40:58.316Z,8.37
2017-09-21T23:43:25.993Z,7.80
2017-09-21T23:45:53.625Z,7.53
2017-09-21T23:48:21.283Z,9.00
2017-09-21T23:50:48.936Z,9.60
2017-09-21T23:53:16.570Z,9.10
2017-09-21T23:55:44.216Z,6.53
2017-09-21T23:58:12.596Z,9.00
